createdAt,value
2022-11-08T00:09:18.689Z,95.90
2022-11-08T00:22:01.073Z,96.10
2022-11-08T00:26:57.850Z,95.90
2022-11-08T00:39:22.450Z,95.30
2022-11-08T01:46:48.108Z,97.10
2022-11-08T02:39:54.838Z,95.30
2022-11-08T02:42:22.961Z,96.80
2022-11-08T02:47:19.805Z,95.70
2022-11-08T02:49:47.804Z,97.30
2022-11-08T02:52:15.730Z,97.30
2022-11-08T02:59:42.591Z,96.10
2022-11-08T03:04:39.467Z,96.30
2022-11-08T03:07:07.397Z,96.90
2022-11-08T03:09:35.366Z,97.00
2022-11-08T03:12:03.336Z,96.30
2022-11-08T03:14:32.708Z,96.30
2022-11-08T03:17:00.690Z,96.40
2022-11-08T03:19:28.654Z,97.00
2022-11-08T03:21:56.570Z,96.70
2022-11-08T03:24:24.539Z,97.00
2022-11-08T03:26:52.513Z,96.40
2022-11-08T03:29:20.665Z,96.20
2022-11-08T03:31:49.954Z,96.00
2022-11-08T03:34:18.061Z,95.80
2022-11-08T03:36:46.000Z,95.70
2022-11-08T03:39:13.999Z,95.30
2022-11-08T03:41:41.956Z,95.40
2022-11-08T03:44:09.969Z,95.70
2022-11-08T08:17:03.225Z,99.90
2022-11-08T08:19:32.587Z,99.90
2022-11-08T08:22:00.629Z,99.90
2022-11-08T08:24:28.571Z,99.90
2022-11-08T08:26:56.560Z,99.90
2022-11-08T08:29:24.652Z,99.10
2022-11-08T08:31:52.640Z,98.00
2022-11-08T08:34:20.617Z,97.60
2022-11-08T08:36:49.930Z,97.40
2022-11-08T08:39:17.976Z,98.70
2022-11-08T08:41:45.937Z,97.90
2022-11-08T08:46:42.251Z,96.60
2022-11-08T08:49:10.231Z,99.10
2022-11-08T08:54:07.875Z,96.30
2022-11-08T08:56:35.822Z,95.60
2022-11-08T09:01:51.665Z,90.20
2022-11-08T09:04:22.500Z,87.10
2022-11-08T09:06:50.552Z,85.90
2022-11-08T14:19:46.040Z,47.40
